createdAt,value
2022-10-29T00:00:14.886Z,99.99
2022-10-29T00:01:14.931Z,99.99
2022-10-29T00:02:14.848Z,99.99
2022-10-29T00:03:17.900Z,99.99
2022-10-29T00:04:14.843Z,99.99
2022-10-29T00:05:14.808Z,99.99
2022-10-29T00:06:14.853Z,99.99
2022-10-29T00:07:14.801Z,99.99
2022-10-29T00:08:14.780Z,99.99
2022-10-29T00:09:14.777Z,99.99
2022-10-29T00:10:14.757Z,99.99
2022-10-29T00:11:14.748Z,99.99
2022-10-29T00:12:14.788Z,99.99
2022-10-29T00:13:14.728Z,99.99
2022-10-29T00:14:14.708Z,99.99
2022-10-29T00:15:14.697Z,99.99
2022-10-29T00:16:14.691Z,99.99
2022-10-29T00:17:14.709Z,99.99
2022-10-29T00:18:17.668Z,99.99
2022-10-29T00:19:14.671Z,99.99
2022-10-29T00:20:14.664Z,99.99
2022-10-29T00:21:14.652Z,99.99
2022-10-29T00:22:14.647Z,99.99
2022-10-29T00:23:14.609Z,99.99
2022-10-29T00:24:14.612Z,99.99
2022-10-29T00:25:14.592Z,99.99
2022-10-29T00:26:14.590Z,99.99
2022-10-29T00:27:14.629Z,99.99
2022-10-29T00:28:14.563Z,99.99
2022-10-29T00:29:14.552Z,99.99
2022-10-29T00:30:14.554Z,99.99
2022-10-29T00:31:14.534Z,99.99
2022-10-29T00:32:14.619Z,99.99
2022-10-29T00:33:17.525Z,99.99
2022-10-29T00:34:14.523Z,99.99
2022-10-29T00:35:14.494Z,99.99
2022-10-29T00:36:14.483Z,99.99
2022-10-29T00:37:14.485Z,99.99
2022-10-29T00:38:14.483Z,99.99
2022-10-29T00:39:14.451Z,99.99
2022-10-29T00:40:14.445Z,99.99
2022-10-29T00:41:14.437Z,99.99
2022-10-29T00:42:14.434Z,99.99
2022-10-29T00:43:14.412Z,99.99
2022-10-29T00:44:14.411Z,99.99
2022-10-29T00:45:14.388Z,99.99
2022-10-29T00:46:14.377Z,99.99
2022-10-29T00:47:14.372Z,99.99
2022-10-29T00:48:17.360Z,99.99
2022-10-29T00:49:14.360Z,99.99
2022-10-29T00:50:14.346Z,99.99
2022-10-29T00:51:14.317Z,99.99
2022-10-29T00:52:14.309Z,99.99
2022-10-29T00:53:14.306Z,99.99
2022-10-29T00:54:14.410Z,99.99
2022-10-29T00:55:14.277Z,99.99
2022-10-29T00:56:14.267Z,99.99
2022-10-29T00:57:14.257Z,99.99
2022-10-29T00:58:14.260Z,99.99
2022-10-29T00:59:14.240Z,99.99
2022-10-29T01:00:14.231Z,99.99
2022-10-29T01:01:14.293Z,99.99
2022-10-29T01:02:14.395Z,99.99
2022-10-29T01:03:17.204Z,99.99
2022-10-29T01:04:14.204Z,99.99
2022-10-29T01:05:14.180Z,99.99
2022-10-29T01:06:14.160Z,99.99
2022-10-29T01:07:14.151Z,99.99
2022-10-29T01:08:14.141Z,99.99
2022-10-29T01:09:14.132Z,99.99
2022-10-29T01:10:14.124Z,99.99
2022-10-29T01:11:14.110Z,99.99
2022-10-29T01:12:14.113Z,99.99
2022-10-29T01:13:14.167Z,99.99
2022-10-29T01:14:14.086Z,99.99
2022-10-29T01:15:14.082Z,99.99
2022-10-29T01:16:14.064Z,99.99
2022-10-29T01:17:16.879Z,99.99
2022-10-29T01:18:17.044Z,99.99
2022-10-29T01:19:14.117Z,99.99
2022-10-29T01:20:14.036Z,99.99
2022-10-29T01:21:14.007Z,99.99
2022-10-29T01:22:13.994Z,99.99
2022-10-29T01:23:13.984Z,99.99
2022-10-29T01:24:13.979Z,99.99
2022-10-29T01:25:14.012Z,99.99
2022-10-29T01:26:13.948Z,99.99
2022-10-29T01:27:13.945Z,99.99
2022-10-29T01:28:13.963Z,99.99
2022-10-29T01:29:13.926Z,99.99
2022-10-29T01:30:13.923Z,99.99
2022-10-29T01:31:13.905Z,99.99
2022-10-29T01:32:13.887Z,99.99
2022-10-29T01:33:16.909Z,99.99
2022-10-29T01:34:13.887Z,99.99
2022-10-29T01:35:13.910Z,99.99
2022-10-29T01:36:13.859Z,99.99
2022-10-29T01:37:13.837Z,99.99
2022-10-29T01:38:13.829Z,99.99
2022-10-29T01:39:13.818Z,99.99
2022-10-29T01:40:13.809Z,99.99
2022-10-29T01:41:13.801Z,99.99
2022-10-29T01:42:13.791Z,99.99
2022-10-29T01:43:13.806Z,99.99
2022-10-29T01:44:13.771Z,99.99
2022-10-29T01:45:13.739Z,99.99
2022-10-29T01:46:13.763Z,99.99
2022-10-29T01:47:13.745Z,99.99
2022-10-29T01:48:16.722Z,99.99
2022-10-29T01:49:13.730Z,99.99
2022-10-29T01:50:13.702Z,99.99
2022-10-29T01:51:13.696Z,99.99
2022-10-29T01:52:13.682Z,99.99
2022-10-29T01:53:13.675Z,99.99
2022-10-29T01:54:13.663Z,99.99
2022-10-29T01:55:13.697Z,99.99
2022-10-29T01:56:13.642Z,99.99
2022-10-29T01:57:13.654Z,99.99
2022-10-29T01:58:13.644Z,99.99
2022-10-29T01:59:22.985Z,99.99
2022-10-29T02:00:14.608Z,99.99
2022-10-29T02:01:13.746Z,99.99
2022-10-29T02:02:13.582Z,99.99
2022-10-29T02:03:16.589Z,99.99
2022-10-29T02:04:13.573Z,99.99
2022-10-29T02:05:13.547Z,99.99
2022-10-29T02:06:13.535Z,99.99
2022-10-29T02:07:13.525Z,99.99
2022-10-29T02:08:13.509Z,99.99
2022-10-29T02:09:13.507Z,99.99
2022-10-29T02:10:13.495Z,99.99
2022-10-29T02:11:13.506Z,99.99
2022-10-29T02:12:13.469Z,99.99
2022-10-29T02:13:13.501Z,99.99
2022-10-29T02:14:13.458Z,99.99
2022-10-29T02:15:13.437Z,99.99
2022-10-29T02:16:13.430Z,99.99
2022-10-29T02:17:13.422Z,99.99
2022-10-29T02:18:16.508Z,99.99
2022-10-29T02:19:13.409Z,99.99
2022-10-29T02:20:13.392Z,99.99
2022-10-29T02:21:13.377Z,99.99
2022-10-29T02:22:13.362Z,99.99
2022-10-29T02:23:13.371Z,99.99
2022-10-29T02:24:13.399Z,99.99
2022-10-29T02:25:13.419Z,99.99
2022-10-29T02:26:13.340Z,99.99
2022-10-29T02:27:13.309Z,99.99
2022-10-29T02:28:13.377Z,99.99
2022-10-29T02:29:13.292Z,99.99
2022-10-29T02:30:13.311Z,99.99
2022-10-29T02:31:13.280Z,99.99
2022-10-29T02:32:13.266Z,99.99
2022-10-29T02:33:16.252Z,99.99
2022-10-29T02:34:13.254Z,99.99
2022-10-29T02:35:13.231Z,99.99
2022-10-29T02:36:13.215Z,99.99
2022-10-29T02:37:13.211Z,99.99
2022-10-29T02:38:13.203Z,99.99
2022-10-29T02:39:13.189Z,99.99
2022-10-29T02:40:13.176Z,99.99
2022-10-29T02:41:13.262Z,99.99
2022-10-29T02:42:13.196Z,99.99
2022-10-29T02:43:13.200Z,99.99
2022-10-29T02:44:13.138Z,99.99
2022-10-29T02:45:13.125Z,99.99
2022-10-29T02:46:13.110Z,99.99
2022-10-29T02:47:13.107Z,99.99
2022-10-29T02:48:16.087Z,99.99
2022-10-29T02:49:13.098Z,99.99
2022-10-29T02:50:13.070Z,99.99
2022-10-29T02:51:13.091Z,99.99
2022-10-29T02:52:13.071Z,99.99
2022-10-29T02:53:13.056Z,99.99
2022-10-29T02:54:13.026Z,99.99
2022-10-29T02:55:13.016Z,99.99
2022-10-29T02:56:13.008Z,99.99
2022-10-29T02:57:13.007Z,99.99
2022-10-29T02:58:12.997Z,99.99
2022-10-29T02:59:12.972Z,99.99
2022-10-29T03:00:13.060Z,99.99
2022-10-29T03:01:13.002Z,99.99
2022-10-29T03:02:13.074Z,99.99
2022-10-29T03:03:15.938Z,99.99
2022-10-29T03:04:12.938Z,99.99
2022-10-29T03:05:13.063Z,99.99
2022-10-29T03:06:12.914Z,99.99
2022-10-29T03:07:12.940Z,99.99
2022-10-29T03:08:12.882Z,99.99
2022-10-29T03:09:12.873Z,99.99
2022-10-29T03:10:12.870Z,99.99
2022-10-29T03:11:12.862Z,99.99
2022-10-29T03:12:12.861Z,99.99
2022-10-29T03:13:12.838Z,99.99
2022-10-29T03:14:12.860Z,99.99
2022-10-29T03:15:12.805Z,99.99
2022-10-29T03:16:12.835Z,99.99
2022-10-29T03:17:12.793Z,99.99
2022-10-29T03:18:15.773Z,99.99
2022-10-29T03:19:12.835Z,99.99
2022-10-29T03:20:12.825Z,99.99
2022-10-29T03:21:12.796Z,99.99
2022-10-29T03:22:12.805Z,99.99
2022-10-29T03:23:12.726Z,99.99
2022-10-29T03:24:12.716Z,99.99
2022-10-29T03:25:12.704Z,99.99
2022-10-29T03:26:12.710Z,99.99
2022-10-29T03:27:12.698Z,99.99
2022-10-29T03:28:12.675Z,99.99
2022-10-29T03:29:12.709Z,99.99
2022-10-29T03:30:12.660Z,99.99
2022-10-29T03:31:12.648Z,99.99
2022-10-29T03:32:12.632Z,99.99
2022-10-29T03:33:15.631Z,99.99
2022-10-29T03:34:12.631Z,99.99
2022-10-29T03:35:12.606Z,99.99
2022-10-29T03:36:12.624Z,99.99
2022-10-29T03:37:12.630Z,99.99
2022-10-29T03:38:12.579Z,99.99
2022-10-29T03:39:12.564Z,99.99
2022-10-29T03:40:12.550Z,99.99
2022-10-29T03:41:12.537Z,99.99
2022-10-29T03:42:12.558Z,99.99
2022-10-29T03:43:12.516Z,99.99
2022-10-29T03:44:12.510Z,99.99
2022-10-29T03:45:12.550Z,99.99
2022-10-29T03:46:12.492Z,99.99
2022-10-29T03:47:12.481Z,99.99
2022-10-29T03:48:15.461Z,99.99
2022-10-29T03:49:12.473Z,99.99
2022-10-29T03:50:12.440Z,99.99
2022-10-29T03:51:12.442Z,99.99
2022-10-29T03:52:12.539Z,99.99
2022-10-29T03:53:12.413Z,99.99
2022-10-29T03:54:12.413Z,99.99
2022-10-29T03:55:12.396Z,99.99
2022-10-29T03:56:12.422Z,99.99
2022-10-29T03:57:12.364Z,99.99
2022-10-29T03:58:12.351Z,99.99
2022-10-29T03:59:12.353Z,99.99
2022-10-29T04:00:12.342Z,99.99
2022-10-29T04:01:12.412Z,99.99
2022-10-29T04:02:12.512Z,99.99
2022-10-29T04:03:15.316Z,99.99
2022-10-29T04:04:12.341Z,99.99
2022-10-29T04:05:12.286Z,99.99
2022-10-29T04:06:12.281Z,99.99
2022-10-29T04:07:12.289Z,99.99
2022-10-29T04:08:12.257Z,99.99
2022-10-29T04:09:12.238Z,99.99
2022-10-29T04:10:12.234Z,99.99
2022-10-29T04:11:12.231Z,99.99
2022-10-29T04:12:13.189Z,99.99
2022-10-29T04:13:12.204Z,99.99
2022-10-29T04:14:12.189Z,99.99
2022-10-29T04:15:12.181Z,99.99
2022-10-29T04:16:12.173Z,99.99
2022-10-29T04:17:12.158Z,99.99
2022-10-29T04:18:15.174Z,99.99
2022-10-29T04:19:12.160Z,99.99
2022-10-29T04:20:27.884Z,99.99
2022-10-29T04:27:08.072Z,99.99
2022-10-29T04:29:13.212Z,99.99
2022-10-29T04:31:12.013Z,99.99
2022-10-29T04:32:11.999Z,99.99
2022-10-29T04:33:14.992Z,99.99
2022-10-29T04:34:12.008Z,99.99
2022-10-29T04:35:11.962Z,99.99
2022-10-29T04:36:11.953Z,99.99
2022-10-29T04:37:11.940Z,99.99
2022-10-29T04:38:11.939Z,99.99
2022-10-29T04:39:11.924Z,99.99
2022-10-29T04:40:12.036Z,99.99
2022-10-29T04:41:11.903Z,99.99
2022-10-29T04:42:11.911Z,99.99
2022-10-29T04:43:11.889Z,99.99
2022-10-29T04:44:11.875Z,99.99
2022-10-29T04:45:11.864Z,99.99
2022-10-29T04:46:11.846Z,99.99
2022-10-29T04:47:11.861Z,99.99
2022-10-29T04:48:14.833Z,99.99
2022-10-29T04:49:12.012Z,99.99
2022-10-29T04:50:11.813Z,99.99
2022-10-29T04:51:11.795Z,99.99
2022-10-29T04:52:11.788Z,99.99
2022-10-29T04:53:11.782Z,99.99
2022-10-29T04:54:11.790Z,99.99
2022-10-29T04:55:11.756Z,99.99
2022-10-29T04:56:11.746Z,99.99
2022-10-29T04:57:11.747Z,99.99
2022-10-29T04:58:11.727Z,99.99
2022-10-29T04:59:11.717Z,99.99
2022-10-29T05:00:16.213Z,99.99
2022-10-29T05:01:11.917Z,99.99
2022-10-29T05:02:11.884Z,99.99
2022-10-29T05:03:14.679Z,99.99
2022-10-29T05:04:11.677Z,99.99
2022-10-29T05:05:11.656Z,99.99
2022-10-29T05:06:11.635Z,99.99
2022-10-29T05:07:11.638Z,99.99
2022-10-29T05:08:11.630Z,99.99
2022-10-29T05:09:11.606Z,99.99
2022-10-29T05:10:11.596Z,99.99
2022-10-29T05:11:11.587Z,99.99
2022-10-29T05:12:11.581Z,99.99
2022-10-29T05:13:11.681Z,99.99
2022-10-29T05:14:11.561Z,99.99
2022-10-29T05:15:11.551Z,99.99
2022-10-29T05:16:11.530Z,99.99
2022-10-29T05:17:11.543Z,99.99
2022-10-29T05:18:14.516Z,99.99
2022-10-29T05:19:11.570Z,99.99
2022-10-29T05:20:11.502Z,99.99
2022-10-29T05:21:11.479Z,99.99
2022-10-29T05:22:11.472Z,99.99
2022-10-29T05:23:11.461Z,99.99
2022-10-29T05:24:11.452Z,99.99
2022-10-29T05:25:11.447Z,99.99
2022-10-29T05:26:11.471Z,99.99
2022-10-29T05:27:11.425Z,99.99
2022-10-29T05:28:11.411Z,99.99
2022-10-29T05:29:11.397Z,99.99
2022-10-29T05:30:11.396Z,99.99
2022-10-29T05:31:11.374Z,99.99
2022-10-29T05:32:11.373Z,99.99
2022-10-29T05:33:14.366Z,99.99
2022-10-29T05:34:11.388Z,99.99
2022-10-29T05:35:11.336Z,99.99
2022-10-29T05:36:11.325Z,99.99
2022-10-29T05:37:11.266Z,99.99
2022-10-29T05:38:11.257Z,99.99
2022-10-29T05:39:11.262Z,99.99
2022-10-29T05:40:11.226Z,99.99
2022-10-29T05:41:11.236Z,99.99
2022-10-29T05:42:11.218Z,99.99
2022-10-29T05:43:11.196Z,99.99
2022-10-29T05:44:11.188Z,99.99
2022-10-29T05:45:11.178Z,99.99
2022-10-29T05:46:11.177Z,99.99
2022-10-29T05:47:11.267Z,99.99
2022-10-29T05:48:14.152Z,99.99
2022-10-29T05:49:11.169Z,99.99
2022-10-29T05:50:11.128Z,99.99
2022-10-29T05:51:11.109Z,99.99
2022-10-29T05:52:11.097Z,99.99
2022-10-29T05:53:11.094Z,99.99
2022-10-29T05:54:11.097Z,99.99
2022-10-29T05:55:11.088Z,99.99
2022-10-29T05:56:11.091Z,99.99
2022-10-29T05:57:11.059Z,99.99
2022-10-29T05:58:11.043Z,99.99
2022-10-29T05:59:11.022Z,99.99
2022-10-29T06:00:11.023Z,99.99
2022-10-29T06:01:11.096Z,99.99
2022-10-29T06:02:11.085Z,99.99
2022-10-29T06:03:14.123Z,99.99
2022-10-29T06:04:10.992Z,99.99
2022-10-29T06:05:10.975Z,99.99
2022-10-29T06:06:11.031Z,99.99
2022-10-29T06:07:10.942Z,99.99
2022-10-29T06:08:10.935Z,99.99
2022-10-29T06:09:10.924Z,99.99
2022-10-29T06:10:10.911Z,99.99
2022-10-29T06:11:10.902Z,99.99
2022-10-29T06:12:10.995Z,99.99
2022-10-29T06:13:10.883Z,99.99
2022-10-29T06:14:10.864Z,99.99
2022-10-29T06:15:10.865Z,99.99
2022-10-29T06:16:10.900Z,99.99
2022-10-29T06:17:10.839Z,99.99
2022-10-29T06:18:13.833Z,99.99
2022-10-29T06:19:10.843Z,99.99
2022-10-29T06:20:10.807Z,99.99
2022-10-29T06:21:10.797Z,99.99
2022-10-29T06:22:10.781Z,99.99
2022-10-29T06:23:10.778Z,99.99
2022-10-29T06:24:10.774Z,99.99
2022-10-29T06:25:10.761Z,99.99
2022-10-29T06:26:10.738Z,99.99
2022-10-29T06:27:10.747Z,99.99
2022-10-29T06:28:10.731Z,99.99
2022-10-29T06:29:10.808Z,99.99
2022-10-29T06:30:10.700Z,99.99
2022-10-29T06:31:10.707Z,99.99
2022-10-29T06:32:11.649Z,99.99
2022-10-29T06:33:13.670Z,99.99
2022-10-29T06:34:10.679Z,99.99
2022-10-29T06:35:10.646Z,99.99
2022-10-29T06:36:10.659Z,99.99
2022-10-29T06:37:10.634Z,99.99
2022-10-29T06:38:12.379Z,99.99
2022-10-29T06:39:10.608Z,99.99
2022-10-29T06:40:10.600Z,99.99
2022-10-29T06:41:10.580Z,99.99
2022-10-29T06:42:10.584Z,99.99
2022-10-29T06:43:10.585Z,99.99
2022-10-29T06:44:10.564Z,99.99
2022-10-29T06:45:10.550Z,99.99
2022-10-29T06:46:10.539Z,99.99
2022-10-29T06:47:10.520Z,99.99
2022-10-29T06:48:14.586Z,99.99
2022-10-29T06:49:10.517Z,99.99
2022-10-29T06:50:10.497Z,99.99
2022-10-29T06:51:10.599Z,99.99
2022-10-29T06:52:10.462Z,99.99
2022-10-29T06:53:10.482Z,99.99
2022-10-29T06:54:10.453Z,99.99
2022-10-29T06:55:10.434Z,99.99
2022-10-29T06:56:10.436Z,99.99
2022-10-29T06:57:10.414Z,99.99
2022-10-29T06:58:10.424Z,99.99
2022-10-29T06:59:10.394Z,99.99
2022-10-29T07:00:10.395Z,99.99
2022-10-29T07:01:10.537Z,99.99
2022-10-29T07:02:10.426Z,99.99
2022-10-29T07:03:13.391Z,99.99
2022-10-29T07:04:10.366Z,99.99
2022-10-29T07:05:10.328Z,99.99
2022-10-29T07:06:10.343Z,99.99
2022-10-29T07:07:10.316Z,99.99
2022-10-29T07:08:10.355Z,99.99
2022-10-29T07:09:10.286Z,99.99
2022-10-29T07:10:10.285Z,99.99
2022-10-29T07:11:10.275Z,99.99
2022-10-29T07:12:10.265Z,99.99
2022-10-29T07:13:10.250Z,99.99
2022-10-29T07:14:10.238Z,99.99
2022-10-29T07:15:10.274Z,99.99
2022-10-29T07:16:10.228Z,99.99
2022-10-29T07:17:10.207Z,99.99
2022-10-29T07:18:13.204Z,99.99
2022-10-29T07:19:10.225Z,99.99
2022-10-29T07:20:10.178Z,99.99
2022-10-29T07:21:10.158Z,99.99
2022-10-29T07:22:10.153Z,99.99
2022-10-29T07:23:10.169Z,99.99
2022-10-29T07:24:10.140Z,99.99
2022-10-29T07:25:10.127Z,99.99
2022-10-29T07:26:10.139Z,99.99
2022-10-29T07:27:10.171Z,99.99
2022-10-29T07:28:10.171Z,99.99
2022-10-29T07:29:10.115Z,99.99
2022-10-29T07:30:10.161Z,99.99
2022-10-29T07:31:10.063Z,99.99
2022-10-29T07:32:10.067Z,99.99
2022-10-29T07:33:13.060Z,99.99
2022-10-29T07:34:10.049Z,99.84
2022-10-29T07:35:10.026Z,99.32
2022-10-29T07:36:10.033Z,99.07
2022-10-29T07:37:10.065Z,97.90
2022-10-29T07:38:11.158Z,98.11
2022-10-29T07:39:09.989Z,97.86
2022-10-29T07:40:09.966Z,97.71
2022-10-29T07:41:09.965Z,97.20
2022-10-29T07:42:09.963Z,96.23
2022-10-29T07:43:09.951Z,95.93
2022-10-29T07:44:09.945Z,96.09
2022-10-29T07:45:10.055Z,95.84
2022-10-29T07:46:09.914Z,95.23
2022-10-29T07:47:09.896Z,94.47
2022-10-29T07:48:12.880Z,94.07
2022-10-29T07:49:09.889Z,94.12
2022-10-29T07:50:09.896Z,94.53
2022-10-29T07:51:09.881Z,94.32
2022-10-29T07:52:09.850Z,93.26
2022-10-29T07:53:09.845Z,92.86
2022-10-29T07:54:14.512Z,92.82
2022-10-29T07:55:09.816Z,92.82
2022-10-29T07:56:09.796Z,93.12
2022-10-29T07:57:09.898Z,93.22
2022-10-29T07:58:09.771Z,92.87
2022-10-29T07:59:09.776Z,92.67
2022-10-29T08:00:09.759Z,92.26
2022-10-29T08:01:09.796Z,92.16
2022-10-29T08:02:09.777Z,92.26
2022-10-29T08:03:12.725Z,92.77
2022-10-29T08:04:09.731Z,92.77
2022-10-29T08:05:09.739Z,92.97
2022-10-29T08:06:09.694Z,93.59
2022-10-29T08:07:09.678Z,92.57
2022-10-29T08:08:09.669Z,92.97
2022-10-29T08:09:09.666Z,92.97
2022-10-29T08:10:09.653Z,92.63
2022-10-29T08:11:09.763Z,92.83
2022-10-29T08:12:10.729Z,92.52
2022-10-29T08:13:09.611Z,92.63
2022-10-29T08:14:09.607Z,92.52
2022-10-29T08:15:09.600Z,92.93
2022-10-29T08:16:09.855Z,92.38
2022-10-29T08:17:09.574Z,92.38
2022-10-29T08:18:12.571Z,92.58
2022-10-29T08:19:09.563Z,92.54
2022-10-29T08:20:09.547Z,92.94
2022-10-29T08:21:09.531Z,92.54
2022-10-29T08:22:09.522Z,92.64
2022-10-29T08:23:09.514Z,92.44
2022-10-29T08:24:09.507Z,92.09
2022-10-29T08:25:09.515Z,91.68
2022-10-29T08:26:09.485Z,90.97
2022-10-29T08:27:09.505Z,91.89
2022-10-29T08:28:09.464Z,92.49
2022-10-29T08:29:09.456Z,92.25
2022-10-29T08:30:09.445Z,92.14
2022-10-29T08:31:09.428Z,92.45
2022-10-29T08:32:09.430Z,92.55
2022-10-29T08:33:12.406Z,92.76
2022-10-29T08:34:11.217Z,92.71
2022-10-29T08:35:09.378Z,92.31
2022-10-29T08:36:09.377Z,92.41
2022-10-29T08:37:09.376Z,92.06
2022-10-29T08:38:09.359Z,91.55
2022-10-29T08:39:09.372Z,90.80
2022-10-29T08:40:09.341Z,90.80
2022-10-29T08:41:09.330Z,90.30
2022-10-29T08:42:09.338Z,89.65
2022-10-29T08:43:09.299Z,89.65
2022-10-29T08:44:09.291Z,89.24
2022-10-29T08:45:09.288Z,89.00
2022-10-29T08:46:09.280Z,89.20
2022-10-29T08:47:09.385Z,88.90
2022-10-29T08:48:12.261Z,89.06
2022-10-29T08:49:09.261Z,89.16
2022-10-29T08:50:09.246Z,88.96
2022-10-29T08:51:09.240Z,88.85
2022-10-29T08:52:09.213Z,88.35
2022-10-29T08:53:22.984Z,88.35
2022-10-29T08:54:29.673Z,88.31
2022-10-29T08:55:10.184Z,87.90
2022-10-29T08:56:09.173Z,87.30
2022-10-29T08:57:09.159Z,87.30
2022-10-29T08:58:09.253Z,87.26
2022-10-29T08:59:09.163Z,87.76
2022-10-29T09:01:09.160Z,88.26
2022-10-29T09:02:09.151Z,86.25
2022-10-29T09:03:12.093Z,86.04
2022-10-29T09:04:09.121Z,85.94
2022-10-29T09:05:09.096Z,85.90
2022-10-29T09:06:09.062Z,85.60
2022-10-29T09:07:09.048Z,84.99
2022-10-29T09:08:09.044Z,83.98
2022-10-29T09:09:09.029Z,84.65
2022-10-29T09:10:09.078Z,82.84
2022-10-29T09:11:09.007Z,83.44
2022-10-29T09:12:08.991Z,82.29
2022-10-29T09:13:08.990Z,81.59
2022-10-29T09:14:08.978Z,79.67
2022-10-29T09:15:08.958Z,77.66
2022-10-29T09:16:09.000Z,76.75
2022-10-29T09:17:11.523Z,77.75
2022-10-29T09:18:11.933Z,78.16
2022-10-29T09:19:08.942Z,80.54
2022-10-29T09:20:08.910Z,80.94
2022-10-29T09:21:08.899Z,79.23
2022-10-29T09:22:08.929Z,78.26
2022-10-29T09:23:08.881Z,78.46
2022-10-29T09:24:08.930Z,79.67
2022-10-29T09:25:08.870Z,79.47
2022-10-29T09:26:08.845Z,78.86
2022-10-29T09:27:10.558Z,78.96
2022-10-29T09:28:08.823Z,79.13
2022-10-29T09:29:08.820Z,79.43
2022-10-29T09:30:08.793Z,77.66
2022-10-29T09:31:08.811Z,76.95
2022-10-29T09:32:08.777Z,77.25
2022-10-29T09:33:11.784Z,78.06
2022-10-29T09:34:08.775Z,76.91
2022-10-29T09:35:08.744Z,75.90
2022-10-29T09:36:08.735Z,75.30
2022-10-29T09:37:08.727Z,74.08
2022-10-29T09:38:08.720Z,72.98
2022-10-29T09:39:08.706Z,73.72
2022-10-29T09:40:08.695Z,74.63
2022-10-29T09:41:08.719Z,74.63
2022-10-29T09:42:08.687Z,75.20
2022-10-29T09:43:08.672Z,75.30
2022-10-29T09:44:08.772Z,75.50
2022-10-29T09:45:08.666Z,73.18
2022-10-29T09:46:08.658Z,74.90
2022-10-29T09:47:09.842Z,75.60
2022-10-29T09:48:11.610Z,75.10
2022-10-29T09:49:08.636Z,76.81
2022-10-29T09:50:09.146Z,75.70
2022-10-29T09:51:08.681Z,76.77
2022-10-29T09:52:08.600Z,75.90
2022-10-29T09:53:08.559Z,73.18
2022-10-29T09:54:08.555Z,73.79
2022-10-29T09:55:08.534Z,74.59
2022-10-29T09:56:08.535Z,72.58
2022-10-29T09:57:08.512Z,73.25
2022-10-29T09:58:08.503Z,73.25
2022-10-29T09:59:08.494Z,71.33
2022-10-29T10:00:08.480Z,72.44
2022-10-29T10:01:08.525Z,70.83
2022-10-29T10:02:08.609Z,70.59
2022-10-29T10:03:11.522Z,72.81
2022-10-29T10:04:08.462Z,73.11
2022-10-29T10:05:08.435Z,72.91
2022-10-29T10:06:08.414Z,70.79
2022-10-29T10:07:08.420Z,70.59
2022-10-29T10:08:08.400Z,72.00
2022-10-29T10:09:08.384Z,70.29
2022-10-29T10:10:08.382Z,69.38
2022-10-29T10:11:08.365Z,69.15
2022-10-29T10:12:08.467Z,68.95
2022-10-29T10:13:11.715Z,67.64
2022-10-29T10:14:08.358Z,69.12
2022-10-29T10:15:08.322Z,69.72
2022-10-29T10:16:08.316Z,68.82
2022-10-29T10:17:08.298Z,68.31
2022-10-29T10:18:11.289Z,68.71
2022-10-29T10:19:08.410Z,69.02
2022-10-29T10:20:08.278Z,67.71
2022-10-29T10:21:08.273Z,67.61
2022-10-29T10:22:10.221Z,68.08
2022-10-29T10:23:08.231Z,69.18
2022-10-29T10:24:08.319Z,67.88
2022-10-29T10:25:08.324Z,68.18
2022-10-29T10:26:08.202Z,69.79
2022-10-29T10:27:08.199Z,68.45
2022-10-29T10:28:08.190Z,67.44
2022-10-29T10:29:08.212Z,68.55
2022-10-29T10:30:08.171Z,69.22
2022-10-29T10:31:08.175Z,68.52
2022-10-29T10:32:08.140Z,68.02
2022-10-29T10:33:11.162Z,67.21
2022-10-29T10:34:08.132Z,69.02
2022-10-29T10:35:08.134Z,69.22
2022-10-29T10:36:08.110Z,69.22
2022-10-29T10:37:08.100Z,68.92
2022-10-29T10:38:08.088Z,69.32
2022-10-29T10:39:08.081Z,69.12
2022-10-29T10:40:08.086Z,68.41
2022-10-29T10:41:08.045Z,68.32
2022-10-29T10:42:08.035Z,68.52
2022-10-29T10:43:08.994Z,68.62
2022-10-29T10:44:08.019Z,69.82
2022-10-29T10:45:08.046Z,69.52
2022-10-29T10:46:07.991Z,69.19
2022-10-29T10:47:07.984Z,70.50
2022-10-29T10:48:11.154Z,68.99
2022-10-29T10:49:07.969Z,69.06
2022-10-29T10:50:07.949Z,68.65
2022-10-29T10:51:07.993Z,67.85
2022-10-29T10:52:08.003Z,67.25
2022-10-29T10:53:07.918Z,67.55
2022-10-29T10:54:07.950Z,67.58
2022-10-29T10:55:07.898Z,68.59
2022-10-29T10:56:07.892Z,67.58
2022-10-29T10:57:07.871Z,67.58
2022-10-29T10:58:07.860Z,68.49
2022-10-29T10:59:07.902Z,69.09
2022-10-29T11:00:07.869Z,66.85
2022-10-29T11:01:07.948Z,67.75
2022-10-29T11:02:07.869Z,67.75
2022-10-29T11:03:10.888Z,66.64
2022-10-29T11:04:07.816Z,67.65
2022-10-29T11:05:08.214Z,66.85
2022-10-29T11:06:07.775Z,66.14
2022-10-29T11:07:07.782Z,66.75
2022-10-29T11:08:07.766Z,66.75
2022-10-29T11:09:07.755Z,67.75
2022-10-29T11:10:07.788Z,67.45
2022-10-29T11:11:07.729Z,66.85
2022-10-29T11:12:07.717Z,66.95
2022-10-29T11:13:07.706Z,67.85
2022-10-29T11:14:07.698Z,68.45
2022-10-29T11:15:07.686Z,68.05
2022-10-29T11:16:07.667Z,67.85
2022-10-29T11:17:07.661Z,66.44
2022-10-29T11:18:10.731Z,66.47
2022-10-29T11:19:07.662Z,67.45
2022-10-29T11:20:07.629Z,69.06
2022-10-29T11:21:07.762Z,66.95
2022-10-29T11:22:07.609Z,66.05
2022-10-29T11:23:07.611Z,67.05
2022-10-29T11:24:07.592Z,67.95
2022-10-29T11:25:07.580Z,67.85
2022-10-29T11:26:07.582Z,67.75
2022-10-29T11:27:07.581Z,67.25
2022-10-29T11:28:07.553Z,66.64
2022-10-29T11:29:07.777Z,67.85
2022-10-29T11:30:07.536Z,67.14
2022-10-29T11:31:07.521Z,69.62
2022-10-29T11:32:07.534Z,65.61
2022-10-29T11:33:10.559Z,65.71
2022-10-29T11:34:07.503Z,65.71
2022-10-29T11:35:07.484Z,64.61
2022-10-29T11:36:07.465Z,63.10
2022-10-29T11:37:07.501Z,64.37
2022-10-29T11:38:07.468Z,64.68
2022-10-29T11:39:07.489Z,63.47
2022-10-29T11:40:07.415Z,63.37
2022-10-29T11:41:07.498Z,63.84
2022-10-29T11:42:07.430Z,64.65
2022-10-29T11:43:09.279Z,65.15
2022-10-29T11:44:07.389Z,65.45
2022-10-29T11:45:07.372Z,65.52
2022-10-29T11:46:07.366Z,67.42
2022-10-29T11:47:07.446Z,66.52
2022-10-29T11:48:10.373Z,66.32
2022-10-29T11:49:08.350Z,66.22
2022-10-29T11:50:07.325Z,66.99
2022-10-29T11:51:07.310Z,66.28
2022-10-29T11:52:07.298Z,66.59
2022-10-29T11:53:07.295Z,67.79
2022-10-29T11:54:07.274Z,66.69
2022-10-29T11:55:07.366Z,64.78
2022-10-29T11:56:07.286Z,66.78
2022-10-29T11:57:07.261Z,68.09
2022-10-29T11:58:07.233Z,68.29
2022-10-29T12:00:07.223Z,68.89
2022-10-29T12:01:07.204Z,68.19
2022-10-29T12:02:07.193Z,67.59
2022-10-29T12:03:10.185Z,68.19
2022-10-29T12:04:07.284Z,68.19
2022-10-29T12:05:07.175Z,68.19
2022-10-29T12:06:07.155Z,67.79
2022-10-29T12:07:07.154Z,66.78
2022-10-29T12:08:07.135Z,66.28
2022-10-29T12:09:07.117Z,65.48
2022-10-29T12:10:07.117Z,65.78
2022-10-29T12:11:07.098Z,63.98
2022-10-29T12:12:07.099Z,64.01
2022-10-29T12:13:07.100Z,63.78
2022-10-29T12:14:07.067Z,63.28
2022-10-29T12:15:07.059Z,63.98
2022-10-29T12:16:07.069Z,61.78
2022-10-29T12:17:07.034Z,62.08
2022-10-29T12:18:10.113Z,61.58
2022-10-29T12:19:07.030Z,61.18
2022-10-29T12:21:06.998Z,60.18
2022-10-29T12:22:06.984Z,60.65
2022-10-29T12:23:11.981Z,59.25
2022-10-29T12:24:06.953Z,59.35
2022-10-29T12:26:06.944Z,60.95
2022-10-29T12:27:06.931Z,60.35
2022-10-29T12:28:06.924Z,61.05
2022-10-29T12:29:06.966Z,59.85
2022-10-29T12:30:06.898Z,59.65
2022-10-29T12:31:06.891Z,60.55
2022-10-29T12:32:06.892Z,61.35
2022-10-29T12:33:09.877Z,61.65
2022-10-29T12:34:06.881Z,60.82
2022-10-29T12:35:06.845Z,61.45
2022-10-29T12:36:06.834Z,60.35
2022-10-29T12:37:06.826Z,60.55
2022-10-29T12:38:06.856Z,60.85
2022-10-29T12:39:06.802Z,61.95
2022-10-29T12:40:06.789Z,62.15
2022-10-29T12:41:06.778Z,62.95
2022-10-29T12:42:06.772Z,63.18
2022-10-29T12:43:06.783Z,64.09
2022-10-29T12:44:06.784Z,65.09
2022-10-29T12:46:19.596Z,64.95
2022-10-29T12:47:06.726Z,64.69
2022-10-29T12:48:09.701Z,64.78
2022-10-29T12:49:06.768Z,65.59
2022-10-29T12:50:06.692Z,64.78
2022-10-29T12:51:06.669Z,65.16
2022-10-29T12:52:06.663Z,65.05
2022-10-29T12:53:06.660Z,65.45
2022-10-29T12:54:06.645Z,64.86
2022-10-29T12:55:06.624Z,64.52
2022-10-29T12:56:06.625Z,64.72
2022-10-29T12:57:06.613Z,65.02
2022-10-29T12:58:06.595Z,63.82
2022-10-29T12:59:06.596Z,64.12
2022-10-29T13:00:06.703Z,64.32
2022-10-29T13:01:06.609Z,63.89
2022-10-29T13:02:11.543Z,64.29
2022-10-29T13:03:09.649Z,63.49
2022-10-29T13:04:06.558Z,63.49
2022-10-29T13:05:06.547Z,63.09